Ash Grove, Missouri
Current Conditions -  °F | °C
As of 2:52 AM on Thursday 23 Oct 2014 (Local Time) from KSGF Reporting Station
Clear Clear  
Wind Chill: 53°   Ceiling: Unl
Heat Index: 53°   Visibility: 10mi
Dew Point: 44°   Wind: 12mph
Humidity: 71%   Direction: 160°SSE
Pressure: 30.16"   Gusts: NA
Location:  37.32°N, 93.59°W
Report Text: KSGF 230752Z 16010KT 10SM CLR 12/07 A3016 RMK AO2 SLP208 T01170067
Loading
Personal Weather Stations






























Interactive Weather Map New forecast layout! Learn more

10-Day Weather Forecast

Advertisements
Track Severe Weather on mobile